Time;durP1;ratioP1;P1;durP2;ratioP2;P2;SDS_P1;SDS_P2;PMS_P1;PMS_P2;Temp;Humidity;BMP_temperature;BMP_pressure;BME280_temperature;BME280_humidity;BME280_pressure;Samples;Min_cycle;Max_cycle;Signal;HPM_P1;HPM_P2
2023/04/18 00:09:20;;;;;;;3.60;1.40;;;16.60;33.50;;;;;;20828919;28;20057;-55
2023/04/18 00:19:22;;;;;;;2.78;1.58;;;16.30;34.00;;;;;;20830635;28;20111;-55
2023/04/18 00:29:23;;;;;;;4.32;1.13;;;16.00;34.70;;;;;;20828165;28;20057;-55
2023/04/18 00:39:24;;;;;;;2.40;1.10;;;15.90;35.40;;;;;;20829336;28;20371;-56
2023/04/18 00:49:26;;;;;;;3.67;1.20;;;15.70;35.60;;;;;;20830966;28;20054;-55
2023/04/18 00:59:27;;;;;;;2.75;0.98;;;15.50;35.40;;;;;;20843246;28;20045;-55
2023/04/18 01:09:29;;;;;;;3.13;1.58;;;15.40;34.80;;;;;;20842452;28;20546;-55
2023/04/18 01:19:31;;;;;;;1.65;0.98;;;15.40;34.60;;;;;;20840592;28;20054;-54
2023/04/18 01:29:33;;;;;;;2.25;1.10;;;15.30;34.40;;;;;;20839666;28;20068;-54
2023/04/18 01:39:34;;;;;;;2.60;0.85;;;15.20;34.10;;;;;;20840250;28;20414;-57
2023/04/18 01:49:36;;;;;;;2.03;1.00;;;14.90;34.40;;;;;;20839668;28;20045;-56
2023/04/18 01:59:37;;;;;;;1.42;1.08;;;14.80;34.10;;;;;;20838077;28;20068;-56
2023/04/18 02:09:38;;;;;;;2.92;1.17;;;14.60;34.20;;;;;;20838132;28;20050;-55
2023/04/18 02:19:40;;;;;;;1.92;1.10;;;14.40;34.40;;;;;;20836324;28;20054;-55
2023/04/18 02:29:41;;;;;;;2.65;1.38;;;14.50;34.40;;;;;;20836201;28;20478;-55
2023/04/18 02:39:43;;;;;;;2.40;1.30;;;14.10;35.20;;;;;;20835596;28;20049;-56
2023/04/18 02:49:44;;;;;;;2.08;1.30;;;14.10;35.60;;;;;;20834859;28;20045;-55
2023/04/18 02:59:46;;;;;;;2.50;1.10;;;13.90;36.00;;;;;;20834032;28;20450;-55
2023/04/18 03:09:47;;;;;;;2.30;1.30;;;13.80;36.40;;;;;;20833341;28;20046;-56
2023/04/18 03:19:49;;;;;;;2.28;1.40;;;13.70;37.00;;;;;;20831100;28;20461;-53
2023/04/18 03:29:50;;;;;;;3.17;1.45;;;13.70;37.50;;;;;;20832337;28;20045;-55
2023/04/18 03:39:52;;;;;;;1.50;1.20;;;13.40;38.60;;;;;;20831808;28;20375;-55
2023/04/18 03:49:53;;;;;;;2.22;1.58;;;13.30;39.30;;;;;;20831316;28;20049;-56
2023/04/18 03:59:54;;;;;;;2.45;1.20;;;13.20;39.50;;;;;;20829557;28;20049;-55
2023/04/18 04:10:00;;;;;;;2.58;1.52;;;13.00;39.90;;;;;;20829014;28;20057;-56
2023/04/18 04:20:02;;;;;;;2.33;1.45;;;12.90;40.20;;;;;;20829058;28;20057;-56
2023/04/18 04:30:05;;;;;;;2.20;1.50;;;12.80;40.90;;;;;;20842564;28;20071;-56
2023/04/18 04:40:08;;;;;;;2.78;1.40;;;12.90;41.10;;;;;;20844657;28;20107;-55
2023/04/18 04:50:14;;;;;;;3.53;1.50;;;12.70;41.60;;;;;;20843866;28;20391;-56
2023/04/18 05:00:19;;;;;;;3.88;1.77;;;12.70;41.90;;;;;;20843266;28;20053;-55
2023/04/18 05:10:21;;;;;;;3.47;1.63;;;12.60;42.40;;;;;;20842501;28;20045;-56
2023/04/18 05:20:23;;;;;;;2.60;1.73;;;12.60;42.70;;;;;;20840478;28;20049;-55
2023/04/18 05:30:25;;;;;;;4.15;2.28;;;12.60;42.70;;;;;;20840010;28;20092;-55
2023/04/18 05:40:27;;;;;;;3.33;1.75;;;12.60;42.80;;;;;;20839232;28;20096;-55
2023/04/18 05:50:28;;;;;;;3.42;1.90;;;12.50;42.70;;;;;;20839208;28;20103;-54
2023/04/18 06:00:30;;;;;;;2.42;1.77;;;12.50;43.00;;;;;;20838634;28;20491;-55
2023/04/18 06:10:31;;;;;;;3.13;1.65;;;12.50;43.10;;;;;;20837196;28;20054;-54
2023/04/18 06:20:33;;;;;;;5.45;2.42;;;12.30;43.30;;;;;;20835580;28;20053;-56
2023/04/18 06:30:35;;;;;;;5.47;2.17;;;12.40;43.40;;;;;;20835573;28;20045;-55
2023/04/18 06:40:36;;;;;;;3.38;1.90;;;12.50;43.30;;;;;;20835206;28;20409;-55
2023/04/18 06:50:38;;;;;;;4.40;2.50;;;12.50;43.00;;;;;;20833021;28;20045;-56
2023/04/18 07:00:39;;;;;;;5.28;1.90;;;12.70;42.70;;;;;;20832098;28;20046;-55
2023/04/18 07:10:41;;;;;;;4.40;1.70;;;12.80;42.30;;;;;;20830712;28;20414;-56
2023/04/18 07:20:42;;;;;;;7.03;2.25;;;13.20;41.80;;;;;;20828980;28;20495;-54
2023/04/18 07:30:44;;;;;;;6.72;2.20;;;13.50;41.40;;;;;;20828294;28;20049;-56
2023/04/18 07:40:46;;;;;;;4.97;1.90;;;13.90;40.60;;;;;;20829317;28;20061;-54
2023/04/18 07:50:48;;;;;;;5.55;2.05;;;14.00;40.70;;;;;;20829840;28;20045;-56
2023/04/18 08:00:49;;;;;;;6.32;2.53;;;14.30;40.00;;;;;;20833787;28;20104;-56
2023/04/18 08:10:51;;;;;;;3.30;2.08;;;14.70;39.30;;;;;;20844590;28;20081;-55
2023/04/18 08:20:52;;;;;;;3.75;1.98;;;15.00;39.10;;;;;;20827172;28;20068;-55
2023/04/18 08:30:55;;;;;;;3.35;1.90;;;15.50;40.60;;;;;;20749507;28;20046;-57
2023/04/18 08:40:56;;;;;;;3.85;1.77;;;15.80;37.60;;;;;;20759894;28;20479;-58
2023/04/18 08:50:58;;;;;;;4.32;1.95;;;15.90;37.50;;;;;;20757119;28;20050;-57
2023/04/18 09:01:00;;;;;;;2.60;1.92;;;16.10;37.50;;;;;;20746171;28;20053;-59
2023/04/18 09:11:21;;;;;;;4.18;1.88;;;16.70;37.40;;;;;;20730675;28;20072;-61
2023/04/18 09:21:22;;;;;;;4.63;1.67;;;16.80;36.50;;;;;;20746023;28;20062;-60
2023/04/18 09:31:25;;;;;;;4.13;1.60;;;16.90;35.60;;;;;;20679289;28;20043;-62
2023/04/18 09:41:29;;;;;;;;;;;17.00;35.00;;;;;;20681995;28;20422;-59
2023/04/18 09:51:32;;;;;;;5.13;1.83;;;16.70;38.60;;;;;;20748887;28;19984;-59
2023/04/18 10:01:34;;;;;;;4.47;1.70;;;17.60;36.70;;;;;;20755220;28;20412;-60
2023/04/18 10:11:36;;;;;;;5.80;1.70;;;17.70;35.50;;;;;;20755070;28;20361;-59
2023/04/18 10:21:53;;;;;;;4.78;1.92;;;17.40;35.50;;;;;;20825238;28;20428;-58
2023/04/18 10:31:54;;;;;;;4.68;1.80;;;17.40;35.20;;;;;;20834131;28;20108;-59
2023/04/18 10:41:56;;;;;;;5.20;2.08;;;17.70;35.60;;;;;;20834655;28;20132;-57
2023/04/18 10:51:59;;;;;;;3.33;1.80;;;18.10;34.50;;;;;;20832140;28;20049;-57
2023/04/18 11:02:12;;;;;;;6.13;2.00;;;18.00;34.70;;;;;;20832945;28;20041;-57
2023/04/18 11:12:14;;;;;;;32.33;5.03;;;18.40;34.30;;;;;;20831808;28;20056;-61
2023/04/18 11:22:16;;;;;;;15.35;2.83;;;18.70;34.40;;;;;;20829617;28;20076;-59
2023/04/18 11:32:18;;;;;;;7.83;2.20;;;18.90;33.50;;;;;;20828384;28;20056;-58
2023/04/18 11:42:20;;;;;;;6.47;2.30;;;19.00;33.40;;;;;;20826896;28;20069;-57
2023/04/18 11:52:21;;;;;;;4.00;2.30;;;19.20;32.40;;;;;;20829038;28;20360;-54
2023/04/18 12:02:25;;;;;;;3.65;2.05;;;19.40;31.80;;;;;;20828947;28;20049;-56
2023/04/18 12:12:26;;;;;;;;;;;19.80;30.50;;;;;;20829331;28;20058;-55
2023/04/18 12:22:43;;;;;;;7.10;2.25;;;19.60;29.60;;;;;;20829419;28;20421;-56
2023/04/18 12:32:45;;;;;;;8.98;5.85;;;19.70;29.70;;;;;;20829029;28;20049;-56
2023/04/18 12:42:47;;;;;;;5.30;1.60;;;20.10;28.90;;;;;;20827176;28;20045;-55
2023/04/18 12:52:51;;;;;;;3.78;1.40;;;20.40;28.00;;;;;;20841849;28;20052;-56
2023/04/18 13:02:52;;;;;;;;;;;20.70;23.50;;;;;;20842450;28;20100;-56
2023/04/18 13:12:53;;;;;;;5.85;1.60;;;20.90;22.60;;;;;;20841785;28;20421;-56
2023/04/18 13:22:55;;;;;;;5.65;2.67;;;21.00;23.10;;;;;;20841496;28;20053;-56
2023/04/18 13:32:56;;;;;;;8.30;4.07;;;20.90;23.60;;;;;;20839489;28;20112;-55
2023/04/18 13:42:57;;;;;;;9.50;4.70;;;20.80;24.70;;;;;;20840342;28;20479;-58
2023/04/18 13:52:59;;;;;;;9.23;4.88;;;21.10;24.40;;;;;;20839562;28;20052;-56
2023/04/18 14:03:00;;;;;;;14.30;6.38;;;21.10;23.00;;;;;;20837283;28;20120;-58
2023/04/18 14:13:02;;;;;;;7.35;4.70;;;21.10;23.80;;;;;;20837058;28;20045;-56
2023/04/18 14:23:04;;;;;;;6.07;3.25;;;21.30;23.50;;;;;;20836211;28;20132;-57
2023/04/18 14:33:07;;;;;;;9.48;3.70;;;21.60;23.50;;;;;;20836489;28;20050;-56
2023/04/18 14:43:08;;;;;;;4.47;2.60;;;21.70;23.50;;;;;;20835571;28;20052;-58
2023/04/18 14:53:11;;;;;;;6.07;2.50;;;21.90;22.40;;;;;;20834545;28;20131;-57
2023/04/18 15:03:13;;;;;;;3.78;1.60;;;21.90;22.00;;;;;;20833899;28;20057;-59
2023/04/18 15:13:14;;;;;;;3.75;1.92;;;22.20;22.80;;;;;;20833041;28;20099;-56
2023/04/18 15:23:16;;;;;;;3.35;1.48;;;22.20;22.50;;;;;;20831475;28;20049;-56
2023/04/18 15:33:19;;;;;;;5.97;1.55;;;22.20;22.50;;;;;;20830741;28;20046;-56
2023/04/18 15:43:20;;;;;;;4.75;1.67;;;22.40;22.80;;;;;;20830806;28;20157;-57
2023/04/18 15:53:21;;;;;;;6.70;2.10;;;22.30;24.30;;;;;;20830076;28;20049;-53
2023/04/18 16:03:23;;;;;;;4.25;2.13;;;22.60;23.20;;;;;;20828416;28;20410;-61
2023/04/18 16:13:24;;;;;;;5.22;1.48;;;22.60;23.20;;;;;;20827356;28;20065;-55
2023/04/18 16:23:26;;;;;;;4.63;1.95;;;22.60;23.20;;;;;;20836571;28;20486;-54
2023/04/18 16:33:27;;;;;;;4.03;1.80;;;22.60;22.90;;;;;;20843513;28;20490;-54
2023/04/18 16:43:35;;;;;;;4.80;1.75;;;22.60;23.20;;;;;;20843145;28;20123;-54
2023/04/18 16:53:36;;;;;;;4.22;1.30;;;22.60;23.60;;;;;;20841703;28;20050;-53
2023/04/18 17:03:38;;;;;;;5.50;2.10;;;22.70;22.90;;;;;;20840921;28;20060;-56
2023/04/18 17:13:39;;;;;;;4.07;1.80;;;22.60;23.10;;;;;;20839725;28;20061;-58
2023/04/18 17:23:41;;;;;;;4.05;1.50;;;22.40;23.10;;;;;;20840482;28;20050;-57
2023/04/18 17:33:43;;;;;;;2.20;1.20;;;22.40;22.40;;;;;;20838437;28;20049;-58
2023/04/18 17:43:45;;;;;;;7.37;2.53;;;22.40;22.20;;;;;;20839831;28;20058;-60
2023/04/18 17:53:47;;;;;;;6.63;2.67;;;22.30;22.70;;;;;;20838852;28;20060;-59
2023/04/18 18:03:48;;;;;;;5.38;2.70;;;22.30;22.50;;;;;;20836148;28;20053;-57
2023/04/18 18:13:53;;;;;;;5.70;1.73;;;22.20;22.50;;;;;;20835216;28;20115;-57
2023/04/18 18:23:54;;;;;;;5.30;2.20;;;22.00;22.90;;;;;;20837089;28;20060;-58
2023/04/18 18:33:56;;;;;;;8.55;4.50;;;21.80;23.40;;;;;;20836845;28;20140;-58
2023/04/18 18:43:57;;;;;;;11.20;4.15;;;21.70;23.80;;;;;;20835476;28;20108;-58
2023/04/18 18:53:58;;;;;;;7.40;3.88;;;21.60;24.30;;;;;;20834732;28;20411;-58
2023/04/18 19:04:00;;;;;;;6.72;3.47;;;21.30;24.30;;;;;;20833207;28;20064;-58
2023/04/18 19:14:02;;;;;;;9.27;4.38;;;21.20;24.10;;;;;;20830942;28;20073;-58
2023/04/18 19:24:03;;;;;;;7.47;4.15;;;21.10;24.40;;;;;;20831921;28;20072;-59
2023/04/18 19:34:05;;;;;;;9.02;4.18;;;20.90;25.00;;;;;;20831981;28;20052;-59
2023/04/18 19:44:06;;;;;;;11.27;7.43;;;20.70;24.90;;;;;;20831227;28;20104;-59
2023/04/18 19:54:07;;;;;;;11.82;8.50;;;20.60;25.30;;;;;;20828415;28;20057;-57
2023/04/18 20:04:09;;;;;;;11.50;7.32;;;20.30;25.60;;;;;;20829209;28;20486;-58
2023/04/18 20:14:10;;;;;;;18.25;10.80;;;20.30;25.80;;;;;;20827115;28;20060;-60
2023/04/18 20:24:12;;;;;;;21.25;14.60;;;19.90;26.80;;;;;;20828333;28;20053;-58
2023/04/18 20:34:13;;;;;;;19.73;10.27;;;19.80;27.70;;;;;;20829173;28;20054;-60
2023/04/18 20:44:17;;;;;;;15.77;7.50;;;19.60;28.90;;;;;;20826982;28;20064;-59
2023/04/18 20:54:19;;;;;;;10.00;5.28;;;19.40;29.50;;;;;;20827496;28;20053;-59
2023/04/18 21:04:20;;;;;;;28.40;15.50;;;19.20;30.20;;;;;;20827185;28;20462;-57
2023/04/18 21:14:22;;;;;;;8.85;3.75;;;19.00;30.60;;;;;;20839538;28;20133;-58
2023/04/18 21:24:24;;;;;;;6.53;3.17;;;18.70;31.10;;;;;;20839993;28;20487;-57
2023/04/18 21:34:25;;;;;;;4.63;2.55;;;18.40;31.80;;;;;;20839440;28;20045;-57
2023/04/18 21:44:26;;;;;;;9.13;3.22;;;18.20;32.60;;;;;;20837277;28;20064;-56
2023/04/18 21:54:28;;;;;;;7.03;2.25;;;17.90;33.30;;;;;;20837202;28;20077;-59
2023/04/18 22:04:30;;;;;;;5.10;1.80;;;17.60;33.60;;;;;;20837423;28;20415;-58
2023/04/18 22:14:31;;;;;;;8.32;2.13;;;17.40;33.50;;;;;;20836267;28;20053;-59
2023/04/18 22:24:32;;;;;;;9.02;3.25;;;17.20;33.20;;;;;;20835497;28;20049;-57
2023/04/18 22:34:34;;;;;;;8.60;2.50;;;17.20;34.30;;;;;;20834125;28;20046;-60
2023/04/18 22:44:35;;;;;;;8.98;2.70;;;17.30;36.90;;;;;;20834617;28;20414;-57
2023/04/18 22:54:40;;;;;;;8.75;3.08;;;17.30;39.00;;;;;;20834057;28;20129;-57
2023/04/18 23:04:44;;;;;;;8.38;2.97;;;17.20;40.40;;;;;;20833360;28;20041;-56
2023/04/18 23:14:47;;;;;;;5.33;2.07;;;17.20;41.00;;;;;;20832010;28;20057;-58
2023/04/18 23:24:49;;;;;;;10.00;3.27;;;17.20;43.70;;;;;;20831981;28;20095;-59
2023/04/18 23:34:50;;;;;;;10.07;2.75;;;17.20;45.00;;;;;;20831468;28;20119;-58
2023/04/18 23:44:51;;;;;;;11.63;2.92;;;16.90;46.30;;;;;;20829731;28;20049;-57
2023/04/18 23:54:53;;;;;;;10.80;2.20;;;16.90;47.10;;;;;;20830137;28;20466;-58
